createdAt,value
2019-03-13T00:00:47.765Z,13.80
2019-03-13T00:39:14.091Z,10.50
2019-03-13T00:41:44.473Z,11.87
2019-03-13T00:44:14.843Z,11.57
2019-03-13T00:46:45.295Z,13.00
2019-03-13T00:49:15.659Z,13.63
2019-03-13T00:51:45.963Z,12.00
2019-03-13T00:54:16.463Z,10.30
2019-03-13T00:56:46.813Z,11.23
2019-03-13T00:59:17.163Z,7.63
2019-03-13T01:02:12.035Z,10.90
2019-03-13T01:05:10.345Z,9.40
2019-03-13T01:07:40.712Z,8.43
2019-03-13T01:10:11.152Z,7.63
2019-03-13T01:12:41.520Z,7.33
2019-03-13T01:15:12.851Z,7.83
2019-03-13T01:17:43.200Z,7.97
2019-03-13T01:20:13.581Z,6.77
2019-03-13T01:22:43.865Z,7.67
2019-03-13T01:25:14.221Z,7.73
2019-03-13T01:27:44.587Z,6.87
2019-03-13T01:30:15.156Z,6.97
2019-03-13T01:32:50.993Z,6.40
2019-03-13T01:35:24.567Z,6.30
2019-03-13T01:37:54.926Z,6.93
2019-03-13T01:40:25.309Z,6.60
2019-03-13T01:42:55.646Z,5.93
2019-03-13T01:45:26.108Z,8.13
2019-03-13T01:47:56.451Z,6.27
2019-03-13T01:50:26.817Z,8.63
2019-03-13T01:52:57.160Z,7.20
2019-03-13T01:55:27.567Z,7.07
2019-03-13T01:57:57.955Z,8.07
2019-03-13T02:00:28.261Z,6.87
2019-03-13T02:02:58.642Z,7.37
2019-03-13T02:05:28.978Z,7.20
2019-03-13T02:07:59.375Z,6.83
2019-03-13T02:10:29.721Z,6.73
2019-03-13T02:13:00.191Z,6.50
2019-03-13T02:15:30.479Z,7.17
2019-03-13T02:18:00.831Z,7.27
2019-03-13T02:20:31.195Z,6.83
2019-03-13T02:23:01.573Z,7.30
2019-03-13T02:25:31.947Z,8.63
2019-03-13T02:28:02.283Z,7.70
2019-03-13T02:30:32.741Z,6.20
2019-03-13T02:33:03.087Z,5.97
2019-03-13T02:35:33.426Z,6.27
2019-03-13T02:38:03.703Z,4.83
2019-03-13T02:40:34.049Z,4.30
2019-03-13T02:43:04.412Z,6.07
2019-03-13T02:45:34.770Z,7.40
2019-03-13T02:48:05.191Z,4.47
2019-03-13T02:50:35.537Z,4.67
2019-03-13T02:53:05.884Z,4.97
2019-03-13T02:55:36.276Z,4.97
2019-03-13T02:58:06.611Z,4.90
2019-03-13T03:00:51.489Z,5.17
2019-03-13T03:03:31.041Z,4.77
2019-03-13T03:06:01.406Z,6.43
2019-03-13T03:08:31.745Z,5.73
2019-03-13T03:11:02.141Z,5.50
2019-03-13T03:13:32.468Z,5.70
2019-03-13T03:16:02.827Z,5.43
2019-03-13T03:18:33.164Z,7.77
2019-03-13T03:21:03.518Z,6.27
2019-03-13T03:23:33.892Z,7.40
2019-03-13T03:26:04.235Z,5.03
2019-03-13T03:28:34.669Z,5.53
2019-03-13T03:31:05.030Z,4.03
2019-03-13T03:33:35.431Z,6.03
2019-03-13T03:36:05.777Z,5.30
2019-03-13T03:38:36.107Z,4.67
2019-03-13T03:41:06.584Z,4.70
2019-03-13T03:43:40.599Z,6.23
2019-03-13T03:46:08.923Z,6.83
2019-03-13T03:48:39.291Z,6.60
2019-03-13T03:51:09.628Z,6.10
2019-03-13T03:53:40.007Z,6.07
2019-03-13T03:56:10.366Z,6.77
2019-03-13T03:58:40.746Z,4.90
2019-03-13T04:01:11.083Z,5.33
2019-03-13T04:03:41.335Z,4.27
2019-03-13T04:06:11.702Z,5.33
2019-03-13T04:08:42.364Z,5.73
2019-03-13T04:11:12.692Z,5.70
2019-03-13T04:13:44.808Z,7.23
2019-03-13T04:16:15.009Z,5.97
2019-03-13T04:18:45.392Z,8.97
2019-03-13T04:21:15.756Z,6.20
2019-03-13T04:23:46.115Z,8.33
2019-03-13T04:26:16.488Z,6.83
2019-03-13T04:28:46.873Z,5.80
2019-03-13T04:31:17.233Z,32.03
2019-03-13T04:33:47.588Z,47.83
2019-03-13T04:36:17.987Z,79.80
2019-03-13T04:38:48.390Z,58.67
2019-03-13T04:41:18.767Z,26.57
2019-03-13T04:43:49.402Z,21.00
2019-03-13T04:46:19.723Z,8.73
2019-03-13T04:48:50.062Z,5.10
2019-03-13T04:51:20.366Z,6.13
2019-03-13T04:53:50.915Z,4.67
2019-03-13T04:56:21.245Z,5.30
2019-03-13T04:58:51.585Z,6.87
2019-03-13T05:01:21.961Z,7.47
2019-03-13T05:03:52.383Z,6.60
2019-03-13T05:06:23.528Z,8.10
2019-03-13T05:09:37.935Z,16.40
2019-03-13T05:12:08.287Z,24.63
2019-03-13T05:14:38.905Z,41.47
2019-03-13T05:17:09.243Z,14.63
2019-03-13T05:19:39.635Z,8.13
2019-03-13T05:22:09.987Z,17.53
2019-03-13T05:24:40.362Z,22.10
2019-03-13T05:27:10.724Z,29.00
2019-03-13T05:29:41.196Z,10.83
2019-03-13T05:32:11.893Z,13.40
2019-03-13T05:34:42.239Z,7.73
2019-03-13T05:37:12.582Z,9.23
2019-03-13T05:39:42.929Z,9.03
2019-03-13T05:42:13.273Z,8.33
2019-03-13T05:44:43.611Z,8.67
2019-03-13T05:47:14.111Z,9.33
2019-03-13T05:49:44.467Z,7.50
2019-03-13T05:52:14.847Z,8.13
2019-03-13T05:54:45.179Z,6.87
2019-03-13T05:57:15.583Z,5.47
2019-03-13T05:59:45.927Z,6.27
2019-03-13T06:02:16.282Z,32.27
2019-03-13T06:04:46.543Z,6.67
2019-03-13T06:07:17.155Z,7.10
2019-03-13T06:09:47.567Z,6.30
2019-03-13T06:12:17.879Z,5.83
2019-03-13T06:14:48.279Z,6.77
2019-03-13T06:17:18.643Z,7.63
2019-03-13T06:19:48.998Z,16.80
2019-03-13T06:22:19.342Z,12.50
2019-03-13T06:24:49.701Z,10.70
2019-03-13T06:27:20.059Z,11.27
2019-03-13T06:29:50.435Z,11.80
2019-03-13T06:32:20.806Z,15.27
2019-03-13T06:34:51.083Z,18.00
2019-03-13T06:37:21.439Z,10.83
2019-03-13T06:39:51.763Z,12.37
2019-03-13T06:42:22.134Z,13.17
2019-03-13T06:44:52.406Z,10.30
2019-03-13T06:47:25.096Z,7.80
2019-03-13T06:49:54.703Z,6.20
2019-03-13T06:52:25.041Z,8.03
2019-03-13T06:54:55.390Z,8.27
2019-03-13T06:57:25.740Z,7.23
2019-03-13T07:00:26.996Z,7.73
2019-03-13T07:03:18.891Z,10.30
2019-03-13T07:06:08.187Z,9.97
2019-03-13T07:09:15.411Z,8.87
2019-03-13T07:12:13.422Z,8.13
2019-03-13T07:15:02.715Z,6.87
2019-03-13T07:17:37.996Z,12.23
2019-03-13T07:20:32.323Z,12.30
2019-03-13T07:23:33.710Z,14.77
2019-03-13T07:26:34.887Z,17.57
2019-03-13T07:29:22.560Z,15.70
2019-03-13T07:32:00.611Z,17.97
2019-03-13T07:34:58.960Z,16.87
2019-03-13T07:37:36.568Z,13.07
2019-03-13T07:40:30.072Z,15.97
2019-03-13T07:43:19.354Z,15.23
2019-03-13T07:46:07.390Z,10.63
2019-03-13T07:48:53.746Z,9.67
2019-03-13T07:51:41.122Z,12.13
2019-03-13T07:54:32.027Z,10.43
2019-03-13T07:57:33.171Z,10.47
2019-03-13T08:00:22.459Z,13.33
2019-03-13T08:03:10.383Z,11.70
2019-03-13T08:05:59.706Z,10.50
2019-03-13T08:08:41.018Z,11.17
2019-03-13T08:11:44.222Z,16.73
2019-03-13T08:14:35.786Z,17.97
2019-03-13T08:17:14.231Z,17.63
2019-03-13T08:20:04.643Z,22.73
2019-03-13T08:22:56.970Z,30.83
2019-03-13T08:25:44.831Z,16.17
2019-03-13T08:28:28.151Z,15.37
2019-03-13T08:31:27.843Z,23.20
2019-03-13T08:34:19.833Z,27.17
2019-03-13T08:37:06.051Z,19.93
2019-03-13T08:39:43.755Z,17.13
2019-03-13T08:42:26.298Z,10.90
2019-03-13T08:45:21.440Z,10.80
2019-03-13T08:48:19.764Z,10.53
2019-03-13T08:51:07.733Z,45.07
2019-03-13T08:54:06.470Z,29.83
2019-03-13T08:56:55.789Z,17.80
2019-03-13T08:59:48.092Z,25.60
2019-03-13T09:02:26.206Z,20.73
2019-03-13T09:05:11.560Z,23.53
2019-03-13T09:07:56.378Z,38.30
2019-03-13T09:10:48.356Z,18.73
2019-03-13T09:13:40.514Z,16.17
2019-03-13T09:16:32.915Z,14.90
2019-03-13T09:19:22.217Z,12.00
2019-03-13T09:22:14.514Z,12.00
2019-03-13T09:25:12.801Z,15.77
2019-03-13T09:28:08.119Z,10.50
2019-03-13T09:31:09.358Z,12.80
2019-03-13T09:33:57.285Z,5.73
2019-03-13T09:36:37.975Z,6.57
2019-03-13T09:39:36.384Z,9.30
2019-03-13T09:42:28.507Z,10.07
2019-03-13T09:45:17.865Z,16.40
2019-03-13T09:48:13.163Z,9.47
2019-03-13T09:51:02.225Z,5.17
2019-03-13T09:53:53.571Z,2.97
2019-03-13T09:56:41.539Z,2.30
2019-03-13T09:59:27.835Z,3.23
2019-03-13T10:02:17.126Z,4.07
2019-03-13T10:05:06.357Z,4.57
2019-03-13T10:07:53.383Z,4.27
2019-03-13T10:10:42.675Z,6.10
2019-03-13T10:13:25.822Z,4.70
2019-03-13T10:16:15.105Z,4.77
2019-03-13T10:18:55.200Z,9.83
2019-03-13T10:21:37.315Z,10.90
2019-03-13T10:24:29.351Z,6.73
2019-03-13T10:27:06.386Z,10.30
2019-03-13T10:29:51.366Z,9.23
2019-03-13T10:32:43.584Z,6.87
2019-03-13T10:35:39.341Z,6.83
2019-03-13T10:38:22.488Z,4.40
2019-03-13T10:41:11.834Z,3.97
2019-03-13T10:43:54.875Z,4.13
2019-03-13T10:46:59.151Z,2.57
2019-03-13T10:49:43.626Z,3.20
2019-03-13T10:52:39.047Z,3.80
2019-03-13T10:55:28.871Z,3.23
2019-03-13T10:58:17.758Z,3.53
2019-03-13T11:00:58.113Z,3.53
2019-03-13T11:03:40.616Z,4.63
2019-03-13T11:06:32.920Z,3.53
2019-03-13T11:09:16.302Z,3.80
2019-03-13T11:12:00.559Z,2.90
2019-03-13T11:14:48.230Z,2.47
2019-03-13T11:17:26.678Z,4.30
2019-03-13T11:20:04.440Z,6.93
2019-03-13T11:22:52.147Z,5.13
2019-03-13T11:25:47.294Z,5.53
2019-03-13T11:28:42.383Z,5.23
2019-03-13T11:31:30.251Z,48.03
2019-03-13T11:34:22.275Z,13.30
2019-03-13T11:37:11.587Z,14.07
2019-03-13T11:40:05.285Z,11.57
2019-03-13T11:42:54.715Z,9.40
2019-03-13T11:45:54.755Z,6.17
2019-03-13T11:48:34.588Z,5.23
2019-03-13T11:51:26.680Z,5.67
2019-03-13T11:54:11.623Z,7.87
2019-03-13T11:57:09.690Z,5.60
2019-03-13T12:00:08.086Z,8.43
2019-03-13T12:02:45.481Z,6.63
2019-03-13T12:05:37.631Z,10.13
2019-03-13T12:08:14.966Z,10.33
2019-03-13T12:11:04.165Z,9.10
2019-03-13T12:13:56.246Z,8.47
2019-03-13T12:16:45.535Z,6.60
2019-03-13T12:19:36.996Z,17.13
2019-03-13T12:22:44.254Z,15.57
2019-03-13T12:25:39.644Z,13.30
2019-03-13T12:28:34.563Z,15.00
2019-03-13T12:31:22.304Z,8.40
2019-03-13T12:34:11.577Z,8.67
2019-03-13T12:36:59.477Z,9.10
2019-03-13T12:39:49.868Z,7.53
2019-03-13T12:42:34.537Z,6.27
2019-03-13T12:45:36.319Z,5.50
2019-03-13T12:48:24.224Z,7.03
2019-03-13T12:51:13.502Z,7.20
2019-03-13T12:54:11.157Z,5.93
2019-03-13T12:56:52.784Z,7.90
2019-03-13T12:59:47.515Z,5.17
2019-03-13T13:02:30.231Z,5.43
2019-03-13T13:05:28.700Z,5.87
2019-03-13T13:08:27.057Z,7.67
2019-03-13T13:11:14.951Z,8.70
2019-03-13T13:14:10.159Z,5.30
2019-03-13T13:16:59.462Z,7.53
2019-03-13T13:19:29.836Z,6.07
2019-03-13T13:22:00.156Z,6.37
2019-03-13T13:24:30.503Z,8.00
2019-03-13T13:27:01.687Z,5.80
2019-03-13T13:29:32.035Z,6.90
2019-03-13T13:32:02.379Z,5.20
2019-03-13T13:34:32.700Z,4.73
2019-03-13T13:37:03.051Z,6.77
2019-03-13T13:39:33.430Z,4.17
2019-03-13T13:42:03.777Z,10.83
2019-03-13T13:44:34.115Z,6.23
2019-03-13T13:47:04.524Z,3.60
2019-03-13T13:49:34.899Z,3.63
2019-03-13T13:52:05.263Z,3.87
2019-03-13T13:54:35.647Z,4.43
2019-03-13T13:57:05.987Z,3.77
2019-03-13T13:59:36.339Z,4.50
2019-03-13T14:02:06.700Z,4.00
2019-03-13T14:04:37.051Z,4.20
2019-03-13T14:07:07.336Z,3.43
2019-03-13T14:09:37.723Z,3.93
2019-03-13T14:12:07.998Z,3.63
2019-03-13T14:14:38.335Z,4.07
2019-03-13T14:17:08.683Z,5.47
2019-03-13T14:19:39.110Z,8.17
2019-03-13T14:22:09.460Z,17.40
2019-03-13T14:24:39.814Z,5.50
2019-03-13T14:27:14.851Z,6.53
2019-03-13T14:29:42.143Z,6.43
2019-03-13T14:32:12.467Z,1.80
2019-03-13T14:34:42.795Z,2.00
2019-03-13T14:37:13.140Z,2.40
2019-03-13T14:39:43.399Z,2.67
2019-03-13T14:42:13.751Z,2.40
2019-03-13T14:44:44.171Z,3.07
2019-03-13T14:47:14.508Z,2.87
2019-03-13T14:49:44.846Z,4.33
2019-03-13T14:52:15.209Z,3.10
2019-03-13T14:54:45.551Z,2.93
2019-03-13T14:57:15.898Z,3.30
2019-03-13T14:59:46.259Z,4.50
2019-03-13T15:02:16.606Z,14.90
2019-03-13T15:04:46.891Z,44.23
2019-03-13T15:07:17.227Z,5.60
2019-03-13T15:09:47.590Z,3.87
2019-03-13T15:12:17.955Z,4.10
2019-03-13T15:14:48.294Z,3.93
2019-03-13T15:17:18.634Z,4.70
2019-03-13T15:19:48.894Z,8.47
2019-03-13T15:22:19.223Z,5.83
2019-03-13T15:24:49.564Z,12.13
2019-03-13T15:27:19.951Z,7.40
2019-03-13T15:29:50.291Z,12.17
2019-03-13T15:32:20.803Z,9.63
2019-03-13T15:34:51.159Z,12.83
2019-03-13T15:37:21.483Z,9.57
2019-03-13T15:39:51.789Z,26.07
2019-03-13T15:42:22.168Z,13.93
2019-03-13T15:44:52.495Z,12.93
2019-03-13T15:47:22.855Z,7.57
2019-03-13T15:49:53.247Z,4.00
2019-03-13T15:52:23.891Z,3.60
2019-03-13T15:54:54.250Z,4.30
2019-03-13T15:57:24.525Z,4.27
2019-03-13T15:59:54.866Z,4.67
2019-03-13T16:02:25.238Z,3.97
2019-03-13T16:04:55.643Z,3.83
2019-03-13T16:07:25.984Z,4.00
2019-03-13T16:09:56.422Z,4.00
2019-03-13T16:12:26.835Z,5.67
2019-03-13T16:14:57.170Z,9.43
2019-03-13T16:17:27.446Z,8.70
2019-03-13T16:19:57.838Z,21.70
2019-03-13T16:22:28.181Z,9.57
2019-03-13T16:24:58.529Z,3.83
2019-03-13T16:27:28.879Z,3.20
2019-03-13T16:29:59.307Z,4.20
2019-03-13T16:32:29.660Z,9.83
2019-03-13T16:35:00.119Z,8.83
2019-03-13T16:37:30.420Z,26.50
2019-03-13T16:40:00.765Z,9.20
2019-03-13T16:42:31.152Z,6.17
2019-03-13T16:45:03.090Z,5.13
2019-03-13T16:47:33.449Z,5.20
2019-03-13T16:50:03.953Z,7.57
2019-03-13T16:52:34.342Z,7.33
2019-03-13T16:55:05.031Z,5.47
2019-03-13T16:57:36.390Z,5.37
2019-03-13T17:00:11.781Z,11.13
2019-03-13T17:02:42.098Z,7.20
2019-03-13T17:05:12.892Z,7.17
2019-03-13T17:07:43.241Z,7.37
2019-03-13T17:10:14.467Z,6.10
2019-03-13T17:12:44.963Z,8.43
2019-03-13T17:15:17.296Z,10.20
2019-03-13T17:17:48.406Z,7.03
2019-03-13T17:20:20.519Z,6.73
2019-03-13T17:22:50.811Z,6.53
2019-03-13T17:25:21.287Z,6.43
2019-03-13T17:27:51.704Z,6.60
2019-03-13T17:30:24.101Z,6.10
2019-03-13T17:32:56.954Z,5.93
2019-03-13T17:35:27.416Z,6.13
2019-03-13T17:37:57.766Z,6.67
2019-03-13T17:40:28.147Z,8.13
2019-03-13T17:42:58.544Z,7.37
2019-03-13T17:45:29.865Z,7.90
2019-03-13T17:48:01.424Z,7.23
2019-03-13T17:50:31.839Z,7.00
2019-03-13T17:53:02.253Z,7.07
2019-03-13T17:55:33.866Z,7.10
2019-03-13T17:58:04.287Z,8.07
2019-03-13T18:00:46.223Z,13.37
2019-03-13T18:03:16.491Z,7.30
2019-03-13T18:05:46.983Z,8.60
2019-03-13T18:08:17.931Z,8.17
2019-03-13T18:10:48.332Z,7.67
2019-03-13T18:13:18.699Z,8.60
2019-03-13T18:15:49.182Z,9.67
2019-03-13T18:18:19.526Z,8.53
2019-03-13T18:20:49.902Z,10.53
2019-03-13T18:23:20.343Z,14.60
2019-03-13T18:25:50.723Z,15.30
2019-03-13T18:28:21.411Z,11.97
2019-03-13T18:30:51.771Z,12.93
2019-03-13T18:33:22.162Z,13.33
2019-03-13T18:35:52.638Z,13.20
2019-03-13T18:38:23.059Z,14.90
2019-03-13T18:40:53.494Z,17.13
2019-03-13T18:43:23.830Z,17.33
2019-03-13T18:45:54.283Z,16.57
2019-03-13T18:48:24.542Z,15.27
2019-03-13T18:50:54.923Z,13.00
2019-03-13T18:53:25.284Z,13.00
2019-03-13T18:55:55.614Z,13.13
2019-03-13T18:58:25.898Z,12.03
2019-03-13T19:00:58.308Z,11.70
2019-03-13T19:03:28.889Z,11.57
2019-03-13T19:05:59.280Z,12.50
2019-03-13T19:08:29.678Z,14.53
2019-03-13T19:10:59.979Z,15.37
2019-03-13T19:13:30.342Z,17.80
2019-03-13T19:16:00.687Z,15.77
2019-03-13T19:18:31.042Z,15.90
2019-03-13T19:21:01.457Z,20.10
2019-03-13T19:23:31.810Z,24.13
2019-03-13T19:26:02.087Z,33.90
2019-03-13T19:28:33.873Z,27.53
2019-03-13T19:31:04.358Z,15.13
2019-03-13T19:33:34.878Z,11.40
2019-03-13T19:36:05.589Z,11.70
2019-03-13T19:38:36.219Z,10.93
2019-03-13T19:41:08.920Z,12.20
2019-03-13T19:43:39.733Z,11.13
2019-03-13T19:46:10.371Z,10.53
2019-03-13T19:48:40.906Z,10.23
2019-03-13T19:51:11.344Z,11.17
2019-03-13T19:53:42.218Z,11.57
2019-03-13T19:56:12.591Z,10.60
2019-03-13T19:58:43.198Z,11.90
2019-03-13T20:01:13.778Z,10.50
2019-03-13T20:03:54.565Z,10.37
2019-03-13T20:06:16.207Z,10.03
2019-03-13T20:08:46.552Z,10.10
2019-03-13T20:11:17.171Z,11.80
2019-03-13T20:13:47.657Z,14.63
2019-03-13T20:16:18.137Z,15.47
2019-03-13T20:18:49.840Z,13.77
2019-03-13T20:21:20.326Z,12.83
2019-03-13T20:23:50.711Z,12.67
2019-03-13T20:26:20.987Z,12.47
2019-03-13T20:28:51.406Z,12.37
2019-03-13T20:31:22.017Z,13.03
2019-03-13T20:33:52.383Z,13.63
2019-03-13T20:36:22.714Z,13.13
2019-03-13T20:38:53.081Z,13.07
2019-03-13T20:41:23.439Z,13.30
2019-03-13T20:43:53.982Z,13.77
2019-03-13T20:46:24.656Z,14.00
2019-03-13T20:48:55.286Z,15.47
2019-03-13T20:51:25.946Z,14.40
2019-03-13T20:53:56.378Z,15.30
2019-03-13T20:56:26.850Z,13.60
2019-03-13T20:58:57.232Z,13.00
2019-03-13T21:01:27.760Z,13.00
2019-03-13T21:03:58.223Z,13.70
2019-03-13T21:06:28.565Z,13.37
2019-03-13T21:08:59.018Z,13.97
2019-03-13T21:11:29.389Z,15.73
2019-03-13T21:13:59.817Z,15.23
2019-03-13T21:16:30.288Z,15.50
2019-03-13T21:19:00.634Z,14.73
2019-03-13T21:21:30.915Z,15.20
2019-03-13T21:24:01.278Z,16.57
2019-03-13T21:26:31.649Z,17.93
2019-03-13T21:29:02.106Z,14.43
2019-03-13T21:31:32.502Z,14.90
2019-03-13T21:34:03.059Z,14.73
2019-03-13T21:36:33.573Z,14.93
2019-03-13T21:39:04.658Z,14.90
2019-03-13T21:41:35.700Z,16.70
2019-03-13T21:44:06.264Z,16.67
2019-03-13T21:46:39.043Z,16.87
2019-03-13T21:49:09.531Z,19.17
2019-03-13T21:51:40.002Z,21.37
2019-03-13T21:54:10.405Z,19.03
2019-03-13T21:56:40.823Z,20.37
2019-03-13T21:59:11.205Z,19.57
2019-03-13T22:01:41.578Z,22.13
2019-03-13T22:04:23.665Z,24.10
2019-03-13T22:06:43.883Z,26.87
2019-03-13T22:09:14.246Z,29.57
2019-03-13T22:11:44.673Z,24.03
2019-03-13T22:14:15.044Z,19.67
2019-03-13T22:16:45.474Z,50.60
2019-03-13T22:19:15.803Z,24.13
2019-03-13T22:21:46.099Z,22.87
2019-03-13T22:24:16.468Z,20.50
2019-03-13T22:26:46.835Z,34.60
2019-03-13T22:29:17.199Z,26.33
2019-03-13T22:31:47.578Z,36.53
2019-03-13T22:34:17.928Z,29.20
2019-03-13T22:36:48.321Z,35.27
2019-03-13T22:39:18.696Z,31.73
2019-03-13T22:41:49.060Z,26.50
2019-03-13T22:44:19.435Z,23.23
2019-03-13T22:46:50.500Z,20.80
2019-03-13T22:49:21.048Z,21.67
2019-03-13T22:51:51.386Z,23.30
2019-03-13T22:54:21.743Z,21.97
2019-03-13T22:56:52.107Z,26.30
2019-03-13T22:59:22.507Z,21.77
2019-03-13T23:01:52.814Z,22.60
2019-03-13T23:04:23.160Z,31.40
2019-03-13T23:06:53.540Z,54.00
2019-03-13T23:09:23.958Z,35.53
2019-03-13T23:11:54.250Z,27.00
2019-03-13T23:14:24.619Z,27.90
2019-03-13T23:16:54.982Z,26.77
2019-03-13T23:19:25.355Z,26.57
2019-03-13T23:21:55.842Z,26.07
2019-03-13T23:24:26.199Z,25.27
2019-03-13T23:26:56.548Z,27.00
2019-03-13T23:29:26.971Z,25.87
2019-03-13T23:31:57.542Z,28.60
2019-03-13T23:34:27.867Z,29.33
2019-03-13T23:36:58.184Z,27.70
2019-03-13T23:39:28.541Z,28.93
2019-03-13T23:41:58.940Z,26.73
2019-03-13T23:44:29.303Z,28.57
2019-03-13T23:46:59.647Z,24.87
2019-03-13T23:49:30.019Z,25.63
2019-03-13T23:52:02.787Z,26.47
2019-03-13T23:54:32.319Z,25.83
2019-03-13T23:57:02.672Z,27.17
2019-03-13T23:59:33.035Z,24.97
